createdAt,value
2023-03-11T00:00:40.317Z,68.89
2023-03-11T00:04:39.945Z,60.82
2023-03-11T00:08:39.908Z,49.14
2023-03-11T00:12:39.871Z,61.04
2023-03-11T00:16:39.916Z,54.61
2023-03-11T00:20:39.805Z,64.42
2023-03-11T00:24:39.785Z,54.25
2023-03-11T00:28:39.743Z,66.00
2023-03-11T00:32:39.805Z,56.04
2023-03-11T00:36:39.667Z,82.84
2023-03-11T00:40:39.636Z,73.95
2023-03-11T00:44:39.594Z,76.83
2023-03-11T00:48:39.570Z,80.24
2023-03-11T00:52:39.531Z,87.21
2023-03-11T00:56:39.514Z,69.81
2023-03-11T01:00:39.444Z,64.41
2023-03-11T01:04:39.466Z,63.42
2023-03-11T01:08:39.419Z,72.99
2023-03-11T01:12:39.340Z,88.49
2023-03-11T01:16:39.275Z,74.78
2023-03-11T01:20:39.285Z,54.63
2023-03-11T01:24:39.322Z,59.55
2023-03-11T01:28:39.383Z,75.87
2023-03-11T01:32:39.594Z,70.99
2023-03-11T01:36:39.437Z,73.19
2023-03-11T01:40:39.446Z,91.79
2023-03-11T01:44:39.439Z,68.74
2023-03-11T01:48:39.452Z,78.53
2023-03-11T01:52:39.423Z,60.29
2023-03-11T01:56:39.455Z,63.58
2023-03-11T02:00:39.458Z,77.62
2023-03-11T02:04:39.493Z,55.15
2023-03-11T02:08:39.562Z,101.95
2023-03-11T02:12:39.519Z,94.33
2023-03-11T02:16:39.521Z,93.69
2023-03-11T02:20:39.551Z,81.04
2023-03-11T02:24:39.523Z,48.80
2023-03-11T02:28:39.524Z,70.18
2023-03-11T02:32:39.556Z,76.12
2023-03-11T02:36:39.515Z,58.53
2023-03-11T02:40:39.507Z,68.59
2023-03-11T02:44:39.488Z,77.69
2023-03-11T02:48:39.508Z,48.77
2023-03-11T02:52:39.511Z,59.30
2023-03-11T02:56:39.517Z,74.43
2023-03-11T03:00:39.570Z,90.46
2023-03-11T03:04:39.514Z,53.72
2023-03-11T03:08:39.534Z,75.78
2023-03-11T03:12:39.513Z,60.16
2023-03-11T03:16:39.626Z,66.67
2023-03-11T03:20:39.525Z,75.55
2023-03-11T03:24:39.532Z,113.51
2023-03-11T03:28:39.502Z,53.33
2023-03-11T03:32:39.597Z,74.03
2023-03-11T03:36:39.610Z,56.53
2023-03-11T03:40:39.588Z,41.59
2023-03-11T03:44:39.604Z,55.73
2023-03-11T03:48:39.626Z,51.82
2023-03-11T03:52:39.592Z,59.81
2023-03-11T03:56:39.611Z,46.80
2023-03-11T04:00:39.677Z,42.93
2023-03-11T04:04:39.662Z,74.80
2023-03-11T04:08:39.689Z,49.39
2023-03-11T04:12:39.778Z,55.09
2023-03-11T04:16:39.789Z,50.11
2023-03-11T04:20:39.863Z,49.63
2023-03-11T04:24:39.959Z,52.34
2023-03-11T04:28:39.979Z,47.82
2023-03-11T04:32:40.144Z,45.70
2023-03-11T04:36:40.175Z,35.78
2023-03-11T04:40:40.399Z,37.70
2023-03-11T04:44:40.328Z,47.50
2023-03-11T04:48:40.441Z,38.39
2023-03-11T04:52:40.519Z,38.01
2023-03-11T04:56:40.623Z,35.70
2023-03-11T05:00:40.905Z,35.06
2023-03-11T05:04:41.066Z,31.36
2023-03-11T05:08:41.127Z,28.98
2023-03-11T05:12:41.316Z,38.80
2023-03-11T05:16:41.522Z,33.70
2023-03-11T05:20:41.701Z,34.19
2023-03-11T05:24:41.675Z,30.52
2023-03-11T05:28:41.644Z,41.09
2023-03-11T05:32:41.656Z,40.32
2023-03-11T05:36:41.533Z,41.17
2023-03-11T05:40:41.536Z,42.13
2023-03-11T05:44:41.488Z,45.39
2023-03-11T05:48:41.454Z,48.71
2023-03-11T05:52:41.429Z,50.82
2023-03-11T05:56:41.370Z,43.87
2023-03-11T06:00:41.343Z,40.88
2023-03-11T06:04:41.607Z,52.18
2023-03-11T06:08:41.467Z,39.56
2023-03-11T06:12:41.453Z,27.08
2023-03-11T06:16:41.420Z,40.64
2023-03-11T06:20:41.361Z,60.78
2023-03-11T06:24:41.354Z,50.95
2023-03-11T06:28:41.295Z,72.39
2023-03-11T06:32:41.245Z,63.93
2023-03-11T06:36:41.202Z,63.41
2023-03-11T06:40:41.178Z,75.92
2023-03-11T06:44:41.175Z,72.42
2023-03-11T06:48:41.326Z,73.45
2023-03-11T06:52:41.508Z,74.26
2023-03-11T06:56:41.695Z,81.08
2023-03-11T07:00:42.814Z,65.47
2023-03-11T07:04:42.113Z,72.89
2023-03-11T07:08:42.325Z,61.24
2023-03-11T07:12:42.557Z,54.43
2023-03-11T07:16:42.868Z,59.97
2023-03-11T07:20:42.949Z,58.56
2023-03-11T07:24:43.175Z,58.94
2023-03-11T07:28:43.393Z,51.49
2023-03-11T07:32:44.053Z,49.73
2023-03-11T07:36:43.762Z,39.65
2023-03-11T07:40:44.030Z,42.68
2023-03-11T07:44:44.184Z,41.23
2023-03-11T07:48:44.432Z,42.81
2023-03-11T07:52:44.612Z,47.34
2023-03-11T07:56:44.820Z,37.73
2023-03-11T08:00:45.002Z,48.76
2023-03-11T08:04:45.189Z,40.66
2023-03-11T08:08:45.381Z,46.32
2023-03-11T08:12:45.550Z,36.06
2023-03-11T08:16:45.778Z,34.32
2023-03-11T08:20:45.966Z,38.43
2023-03-11T08:24:46.175Z,46.61
2023-03-11T08:28:46.398Z,56.23
2023-03-11T08:32:46.640Z,54.11
2023-03-11T08:36:46.790Z,49.64
2023-03-11T08:40:47.027Z,47.38
2023-03-11T08:44:47.204Z,37.44
2023-03-11T08:48:47.508Z,26.40
2023-03-11T08:52:47.576Z,39.74
2023-03-11T08:56:47.761Z,27.99
2023-03-11T09:00:47.940Z,30.20
2023-03-11T09:04:48.126Z,34.75
2023-03-11T09:08:48.262Z,32.05
2023-03-11T09:12:48.431Z,53.61
2023-03-11T09:16:48.560Z,31.99
2023-03-11T09:20:48.738Z,53.76
2023-03-11T09:24:48.941Z,60.00
2023-03-11T09:28:49.393Z,41.47
2023-03-11T09:32:49.185Z,44.47
2023-03-11T09:36:49.337Z,52.49
2023-03-11T09:40:49.509Z,49.91
2023-03-11T09:44:49.626Z,50.26
2023-03-11T09:48:49.784Z,58.73
2023-03-11T09:52:49.961Z,48.55
2023-03-11T09:56:50.106Z,55.92
2023-03-11T10:00:50.212Z,58.79
2023-03-11T10:04:50.310Z,76.57
2023-03-11T10:08:50.393Z,72.80
2023-03-11T10:12:50.436Z,81.46
2023-03-11T10:16:50.491Z,75.91
2023-03-11T10:20:50.505Z,89.31
2023-03-11T10:24:50.523Z,100.03
2023-03-11T10:28:50.655Z,74.58
2023-03-11T10:32:50.784Z,81.51
2023-03-11T10:36:50.806Z,69.52
2023-03-11T10:40:50.885Z,71.99
2023-03-11T10:44:52.546Z,67.24
2023-03-11T10:48:51.032Z,81.36
2023-03-11T10:52:51.001Z,68.94
2023-03-11T10:56:50.978Z,57.97
2023-03-11T11:00:50.979Z,68.23
2023-03-11T11:04:50.881Z,62.25
2023-03-11T11:08:50.854Z,71.80
2023-03-11T11:12:50.830Z,80.01
2023-03-11T11:16:50.840Z,123.69
2023-03-11T11:20:50.767Z,104.10
2023-03-11T11:24:50.833Z,171.73
2023-03-11T11:28:50.710Z,191.10
2023-03-11T11:32:50.728Z,130.52
2023-03-11T11:36:50.622Z,146.03
2023-03-11T11:40:50.619Z,165.64
2023-03-11T11:44:50.639Z,155.16
2023-03-11T11:48:50.712Z,137.88
2023-03-11T11:52:50.833Z,118.23
2023-03-11T11:56:50.844Z,143.86
2023-03-11T12:00:50.892Z,121.67
2023-03-11T12:04:50.902Z,203.49
2023-03-11T12:08:50.914Z,179.75
2023-03-11T12:12:50.945Z,150.62
2023-03-11T12:16:50.998Z,114.44
2023-03-11T12:20:50.987Z,117.27
2023-03-11T12:24:50.939Z,59.90
2023-03-11T12:28:50.882Z,87.17
2023-03-11T12:32:50.882Z,78.90
2023-03-11T12:36:50.827Z,87.94
2023-03-11T12:40:50.826Z,67.00
2023-03-11T12:44:50.766Z,66.66
2023-03-11T12:48:50.754Z,53.56
2023-03-11T12:52:50.705Z,56.99
2023-03-11T12:56:50.676Z,31.98
2023-03-11T13:00:50.672Z,42.09
2023-03-11T13:04:50.605Z,56.14
2023-03-11T13:08:50.562Z,35.90
2023-03-11T13:12:50.516Z,42.69
2023-03-11T13:16:50.496Z,37.17
2023-03-11T13:20:50.495Z,34.44
2023-03-11T13:24:50.400Z,48.13
2023-03-11T13:28:50.364Z,40.01
2023-03-11T13:32:50.410Z,36.92
2023-03-11T13:36:50.308Z,53.22
2023-03-11T13:40:50.291Z,46.41
2023-03-11T13:44:50.441Z,35.27
2023-03-11T13:48:50.586Z,28.79
2023-03-11T13:52:50.780Z,31.33
2023-03-11T13:56:50.929Z,37.98
2023-03-11T14:00:51.198Z,35.39
2023-03-11T14:04:51.082Z,47.43
2023-03-11T14:08:51.073Z,35.68
2023-03-11T14:12:51.050Z,60.13
2023-03-11T14:16:51.044Z,39.97
2023-03-11T14:20:50.955Z,25.00
2023-03-11T14:24:50.884Z,43.59
2023-03-11T14:28:50.866Z,69.77
2023-03-11T14:32:50.851Z,87.85
2023-03-11T14:36:50.787Z,84.54
2023-03-11T14:40:51.710Z,51.23
2023-03-11T14:44:50.726Z,56.02
2023-03-11T14:48:50.690Z,76.08
2023-03-11T14:52:50.610Z,70.75
2023-03-11T14:56:50.585Z,92.05
2023-03-11T15:00:50.553Z,85.98
2023-03-11T15:04:50.535Z,82.87
2023-03-11T15:08:50.502Z,68.11
2023-03-11T15:12:50.419Z,67.51
2023-03-11T15:16:50.486Z,75.73
2023-03-11T15:20:50.355Z,58.37
2023-03-11T15:24:50.346Z,65.65
2023-03-11T15:28:50.651Z,54.70
2023-03-11T15:32:50.721Z,37.38
2023-03-11T15:36:50.398Z,27.25
2023-03-11T15:40:50.578Z,29.23
2023-03-11T15:44:50.718Z,61.16
2023-03-11T15:48:50.909Z,84.18
2023-03-11T15:52:50.994Z,40.22
2023-03-11T15:56:51.194Z,29.06
2023-03-11T16:00:51.376Z,27.63
2023-03-11T16:04:51.693Z,29.47
2023-03-11T16:08:51.756Z,32.32
2023-03-11T16:12:51.793Z,36.24
2023-03-11T16:16:51.649Z,51.66
2023-03-11T16:20:51.665Z,68.50
2023-03-11T16:24:51.618Z,67.59
2023-03-11T16:28:51.544Z,63.41
2023-03-11T16:32:51.564Z,70.88
2023-03-11T16:36:51.615Z,62.16
2023-03-11T16:40:51.445Z,67.51
2023-03-11T16:44:51.401Z,72.22
2023-03-11T16:48:51.485Z,44.50
2023-03-11T16:52:51.652Z,45.31
2023-03-11T16:56:51.798Z,49.16
2023-03-11T17:00:52.699Z,65.55
2023-03-11T17:04:52.188Z,56.67
2023-03-11T17:08:52.307Z,59.70
2023-03-11T17:12:52.441Z,57.71
2023-03-11T17:16:52.575Z,81.04
2023-03-11T17:20:52.706Z,85.40
2023-03-11T17:24:52.987Z,99.19
2023-03-11T17:28:53.150Z,87.88
2023-03-11T17:32:53.357Z,97.82
2023-03-11T17:36:53.527Z,94.38
2023-03-11T17:40:53.741Z,93.47
2023-03-11T17:44:53.846Z,80.48
2023-03-11T17:48:53.923Z,82.20
2023-03-11T17:52:54.000Z,88.83
2023-03-11T17:56:54.128Z,99.13
2023-03-11T18:00:54.301Z,102.09
2023-03-11T18:04:54.381Z,106.55
2023-03-11T18:08:54.419Z,102.41
2023-03-11T18:12:54.709Z,103.01
2023-03-11T18:16:54.835Z,106.30
2023-03-11T18:20:54.870Z,105.42
2023-03-11T18:24:54.970Z,83.99
2023-03-11T18:28:55.154Z,71.20
2023-03-11T18:32:55.339Z,84.17
2023-03-11T18:36:55.324Z,90.75
2023-03-11T18:40:55.739Z,68.64
2023-03-11T18:44:55.521Z,102.71
2023-03-11T18:48:55.585Z,114.01
2023-03-11T18:52:55.628Z,117.27
2023-03-11T18:56:55.762Z,119.25
2023-03-11T19:00:55.832Z,106.98
2023-03-11T19:04:55.940Z,91.83
2023-03-11T19:08:55.960Z,95.99
2023-03-11T19:12:56.098Z,104.58
2023-03-11T19:16:56.379Z,100.56
2023-03-11T19:20:56.312Z,120.34
2023-03-11T19:24:56.482Z,124.16
2023-03-11T19:28:56.555Z,114.37
2023-03-11T19:32:56.789Z,116.73
2023-03-11T19:36:56.912Z,114.40
2023-03-11T19:40:57.047Z,145.05
2023-03-11T19:44:57.219Z,117.95
2023-03-11T19:48:57.340Z,116.46
2023-03-11T19:52:57.527Z,140.68
2023-03-11T19:56:57.655Z,112.80
2023-03-11T20:00:57.854Z,126.51
2023-03-11T20:04:58.103Z,116.98
2023-03-11T20:08:58.148Z,161.19
2023-03-11T20:13:02.487Z,141.67
2023-03-11T20:16:58.173Z,160.88
2023-03-11T20:20:58.158Z,171.13
2023-03-11T20:24:58.077Z,166.34
2023-03-11T20:28:58.050Z,155.68
2023-03-11T20:32:58.092Z,171.70
2023-03-11T20:36:57.933Z,141.28
2023-03-11T20:40:57.963Z,163.93
2023-03-11T20:44:58.316Z,159.02
2023-03-11T20:48:58.107Z,137.19
2023-03-11T20:52:58.091Z,152.77
2023-03-11T20:56:58.111Z,145.46
2023-03-11T21:00:58.109Z,146.38
2023-03-11T21:04:58.104Z,139.35
2023-03-11T21:08:58.188Z,137.85
2023-03-11T21:12:58.274Z,140.65
2023-03-11T21:16:58.348Z,141.56
2023-03-11T21:20:58.305Z,136.71
2023-03-11T21:24:58.374Z,126.46
2023-03-11T21:28:58.331Z,132.97
2023-03-11T21:32:58.395Z,133.00
2023-03-11T21:36:58.241Z,134.65
2023-03-11T21:40:58.425Z,126.95
2023-03-11T21:44:58.357Z,130.11
2023-03-11T21:48:58.490Z,130.47
2023-03-11T21:52:58.554Z,130.55
2023-03-11T21:56:58.503Z,144.64
2023-03-11T22:00:58.657Z,132.64
2023-03-11T22:04:58.739Z,129.19
2023-03-11T22:08:58.705Z,122.98
2023-03-11T22:12:58.805Z,111.79
2023-03-11T22:16:58.747Z,111.05
2023-03-11T22:20:58.763Z,97.74
2023-03-11T22:24:58.730Z,83.70
2023-03-11T22:28:58.803Z,82.60
2023-03-11T22:32:58.820Z,83.33
2023-03-11T22:36:58.890Z,72.39
2023-03-11T22:40:58.909Z,55.68
2023-03-11T22:44:58.852Z,60.06
2023-03-11T22:48:58.914Z,67.59
2023-03-11T22:52:58.934Z,70.53
2023-03-11T22:56:58.953Z,69.02
2023-03-11T23:00:59.014Z,64.35
2023-03-11T23:04:59.013Z,67.63
2023-03-11T23:08:59.020Z,57.24
2023-03-11T23:12:59.051Z,57.83
2023-03-11T23:16:59.108Z,52.91
2023-03-11T23:20:59.080Z,45.19
2023-03-11T23:24:59.157Z,42.86
2023-03-11T23:28:59.091Z,41.93
2023-03-11T23:32:59.210Z,27.17
2023-03-11T23:36:59.079Z,46.79
2023-03-11T23:40:59.093Z,49.43
2023-03-11T23:44:59.111Z,46.28
2023-03-11T23:48:59.127Z,56.42
2023-03-11T23:52:59.114Z,57.63
2023-03-11T23:56:59.123Z,45.10
